DRI-NNSC Building Weather observations

Data are for 10 minute period ending at time listed.
 Day   Time   Solar   Ave.   Ave.  Ave.  Vector  Max.   Baro.   Total    
  of    of     Rad.   Air    Rel.  Wind   Wind   Wind  Press.  Precip.   
Year   Day            Temp.  Hum.  Speed  Dir.   Gust                    
2015   (PST)  Kw/m2    F      %     mph   deg.    mph    mb.     in.     
-------------------------------------------------------------------------
 185    1:30   0.00   71.2    59    3.5    68      6   849.6    0.00 
 185    1:40   0.00   70.4    61    1.4   327      6   849.6    0.00 
 185    1:50   0.00   69.9    63    7.0   338     11   849.6    0.00 
 185    2:00   0.00   69.0    65    5.9   328      9   849.6    0.00 
 185    2:10   0.00   68.3    66    6.3   325     10   849.5    0.00 
 185    2:20   0.00   67.9    66    5.3   321      8   849.5    0.00 
 185    2:30   0.00   67.8    66    4.7   330      7   849.4    0.00 
 185    2:40   0.00   68.8    62    4.6   315      9   849.3    0.00 
 185    2:50   0.00   69.1    61    3.5   315      7   849.3    0.00 
 185    3:00   0.00   69.0    61    2.9   333      5   849.3    0.00 
 185    3:10   0.00   68.9    62    3.5   340      6   849.3    0.00 
 185    3:20   0.00   68.5    64    2.1   326      4   849.3    0.00 
 185    3:30   0.00   68.1    65    3.2   334      5   849.2    0.00 
 185    3:40   0.00   68.2    65    2.2   332      4   849.3    0.00 
 185    3:50   0.00   67.6    66    2.8   336      5   849.2    0.00 
 185    4:00   0.00   67.3    67    2.3   325      6   849.2    0.00 
 185    4:10   0.00   67.3    66    1.3   330      4   849.3    0.00 
 185    4:20   0.00   67.9    62    1.6   334      3   849.3    0.00 
 185    4:30   0.00   67.8    64    4.2    51      5   849.3    0.00 
 185    4:40   0.00   67.8    65    3.2    41      5   849.3    0.00 
 185    4:50   0.01   68.0    63    2.6   333      5   849.3    0.00 
 185    5:00   0.01   68.2    62    3.3   328      5   849.3    0.00 
 185    5:10   0.02   68.4    61    2.7   340      6   849.4    0.00 
 185    5:20   0.03   68.1    61    3.6   333      7   849.3    0.00 
 185    5:30   0.04   68.0    61    5.6   335     10   849.3    0.00 
 185    5:40   0.04   67.4    62    5.8   334      9   849.3    0.00 
 185    5:50   0.05   67.6    61    5.8   335     10   849.3    0.00 
 185    6:00   0.07   68.5    57    4.6   331      8   849.3    0.00 
 185    6:10   0.09   69.3    56    4.1   332      7   849.3    0.00 
 185    6:20   0.10   69.1    56    4.5   330      8   849.5    0.00 
 185    6:30   0.11   69.3    57    3.7   326      8   849.5    0.00 
 185    6:40   0.11   69.6    58    3.9   321      9   849.5    0.00 
 185    6:50   0.13   69.0    60    4.7   324      8   849.6    0.00 
 185    7:00   0.15   69.5    58    2.8   318      7   849.6    0.00 
 185    7:10   0.18   70.2    58    2.1   310      4   849.6    0.00 
 185    7:20   0.26   70.9    57    2.2   302      4   849.7    0.00 
 185    7:30   0.23   71.7    57    1.5   322      4   849.6    0.00 
 185    7:40   0.22   71.9    56    0.6   333      2   849.7    0.00 
 185    7:50   0.22   71.5    56    2.4   157      5   849.7    0.00 
 185    8:00   0.18   71.2    56    2.3   158      4   849.8    0.00 
 185    8:10   0.17   71.0    56    2.8   144      6   849.8    0.00 
 185    8:20   0.16   71.1    56    4.0   147      6   850.1    0.00 
 185    8:30   0.15   71.1    56    4.1   158      6   850.2    0.00 
 185    8:40   0.14   71.4    54    3.3   179      6   850.3    0.00 
 185    8:50   0.14   71.2    52    2.9   217      5   850.2    0.00 
 185    9:00   0.22   71.8    51    2.9   277      6   849.9    0.00 
 185    9:10   0.34   72.7    51    3.6   262      7   849.8    0.00 
 185    9:20   0.31   73.1    50    3.4   252      6   849.8    0.00 
 185    9:30   0.39   74.2    48    2.5   244      5   849.7    0.00 
 185    9:40   0.60   75.7    46    2.6   241      5   849.6    0.00 
 185    9:50   0.38   77.4    44    1.3   270      4   849.5    0.00 
 185   10:00   0.24   77.0    45    1.7   191      3   849.5    0.00 
 185   10:10   0.23   76.7    46    2.9   185      5   849.5    0.00 
 185   10:20   0.20   76.3    46    3.3   178      6   849.5    0.00 
 185   10:30   0.16   76.1    46    3.9   191      7   849.5    0.00 
 185   10:40   0.11   76.2    46    3.3   177      7   849.7    0.00 
 185   10:50   0.13   76.1    46    3.6   176      9   850.0    0.00 
 185   11:00   0.18   75.8    47    6.0   201     10   850.0    0.00 
 185   11:10   0.22   75.8    48    8.0   206     17   850.2    0.00 
 185   11:20   0.40   75.1    47   15.0   240     28   850.4    0.00 
 185   11:30   0.40   74.5    47   15.2   243     28   850.3    0.00 
 185   11:40   0.22   74.5    42   16.6   243     34   850.1    0.00 
 185   11:50   0.18   73.7    42   19.6   234     36   850.0    0.00 
 185   12:00   0.18   72.6    43   21.0   243     39   849.8    0.00 
 185   12:10   0.16   71.9    45   22.2   235     34   849.9    0.00 
 185   12:20   0.16   71.6    44   20.2   234     32   849.8    0.00 
 185   12:30   0.15   71.6    45   14.9   234     25   850.1    0.00 
 185   12:40   0.11   72.6    41   12.9   232     22   850.1    0.00 
 185   12:50   0.11   75.8    34    9.5   236     16   849.9    0.00 
 185   13:00   0.11   77.3    30    6.8   221     12   850.0    0.00 
 185   13:10   0.11   77.3    32    3.0   164      8   850.2    0.00 
 185   13:20   0.12   77.1    32    2.4     1      4   850.1    0.00 
 185   13:30   0.13   77.1    32    5.5    17      9   850.1    0.00 
 185   13:40   0.18   77.2    32    5.7    24     10   850.2    0.00 
 185   13:50   0.23   76.9    36    1.7   105      5   850.2    0.00 
 185   14:00   0.18   76.0    39    4.6   154      9   850.3    0.00 
 185   14:10   0.11   74.0    42    5.3   116      9   850.3    0.00 
 185   14:20   0.10   73.8    42    4.0    88      7   850.4    0.00 
 185   14:30   0.10   73.6    43    3.8    89      7   850.4    0.00 
 185   14:40   0.10   73.9    41    4.8   104      7   850.5    0.00 
 185   14:50   0.08   73.7    42    3.9   105      7   850.5    0.00 
 185   15:00   0.08   73.3    41    7.9   125     15   850.6    0.00 
 185   15:10   0.08   71.9    44    8.8   112     15   850.6    0.00 
 185   15:20   0.08   71.3    46    9.9   107     19   850.5    0.00 
 185   15:30   0.08   70.9    49    9.4   109     17   850.6    0.00 
 185   15:40   0.07   69.9    56    7.6    95     12   850.6    0.00 
 185   15:50   0.06   69.3    60    5.7   101     10   850.6    0.00 
 185   16:00   0.05   69.5    60    6.2   152     12   850.9    0.00 
 185   16:10   0.07   69.5    59    6.6   124     11   850.8    0.00 
 185   16:20   0.07   69.4    60    7.4   104     12   850.8    0.00 
 185   16:30   0.08   68.9    61    9.7    95     15   850.7    0.00 
 185   16:40   0.09   67.4    64    8.2    93     18   850.8    0.00 
 185   16:50   0.08   67.1    64    8.4    93     15   850.8    0.00 
 185   17:00   0.08   67.3    63    5.8    74     10   850.6    0.00 
 185   17:10   0.08   67.3    60    4.8    42     13   850.3    0.00 
 185   17:20   0.07   67.3    60    4.1    43      7   850.4    0.00 
 185   17:30   0.05   67.5    58    2.8    96      6   850.5    0.00 
 185   17:40   0.05   67.7    57    3.4   118      6   850.6    0.00 
 185   17:50   0.04   67.6    57    3.3   103      5   850.7    0.00 
 185   18:00   0.04   67.2    58    3.6    98      6   850.7    0.00 
 185   18:10   0.04   67.1    58    3.4    40      6   850.6    0.00 
 185   18:20   0.03   67.2    58    3.6    27      9   850.6    0.00 
 185   18:30   0.03   67.8    53    5.9    26      9   850.6    0.00 
 185   18:40   0.03   67.7    53    3.2    46      7   850.8    0.00 
 185   18:50   0.02   67.6    55    1.8   172      4   850.8    0.00 
 185   19:00   0.01   67.3    57    2.9   156      5   850.9    0.00 
 185   19:10   0.01   67.0    57    3.0   106      6   851.1    0.00 
 185   19:20   0.01   66.6    58    3.8    94      6   851.2    0.00 
 185   19:30   0.00   65.9    61    4.6    42      6   851.2    0.00 
 185   19:40   0.00   65.6    63    4.2    42      7   851.2    0.00 
 185   19:50   0.00   65.4    63    4.6    32      7   851.4    0.00 
 185   20:00   0.00   65.5    61    3.6    44      8   851.5    0.00 
 185   20:10   0.00   65.2    63    2.7    50      4   851.6    0.00 
 185   20:20   0.00   65.0    64    2.5    67      5   851.5    0.00 
 185   20:30   0.00   65.3    62    3.2    84      5   851.4    0.00 
 185   20:40   0.00   65.1    63    1.8    62      3   851.6    0.00 
 185   20:50   0.00   65.3    62    2.3    55      3   851.6    0.00 
 185   21:00   0.00   65.4    61    2.1    66      4   851.6    0.00 
 185   21:10   0.00   65.0    62    0.5    93      2   851.6    0.00 
 185   21:20   0.00   64.9    63    2.2   222      3   851.6    0.00 
 185   21:30   0.00   64.6    64    1.9   280      3   851.6    0.00 
 185   21:40   0.00   64.6    64    2.0   302      4   851.6    0.00 
 185   21:50   0.00   64.5    64    3.6   341      5   851.5    0.00 
 185   22:00   0.00   64.4    64    2.5   359      4   851.5    0.00 
 185   22:10   0.00   64.9    62    2.7   100      4   851.4    0.00 
 185   22:20   0.00   64.1    64    3.9    87      6   851.5    0.00 
 185   22:30   0.00   63.0    68    4.4    53      5   851.5    0.00 
 185   22:40   0.00   63.0    67    3.5    50      6   851.3    0.00 
 185   22:50   0.00   63.4    67    4.6    46      5   851.1    0.00 
 185   23:00   0.00   63.4    67    3.8    62      5   851.1    0.00 
 185   23:10   0.00   63.5    68    2.7    76      4   851.0    0.00 
 185   23:20   0.00   63.5    68    2.6    88      4   851.0    0.00 
 185   23:30   0.00   63.4    68    1.5   107      3   851.0    0.00 
 185   23:40   0.00   63.3    69    1.2    91      2   851.0    0.00 
 185   23:50   0.00   63.2    69    1.9    57      3   851.0    0.00 
 186    0:00   0.00   62.6    71    2.2    44      3   850.9    0.00 
 186    0:10   0.00   62.0    72    2.5    42      4   850.7    0.00 
 186    0:20   0.00   62.2    72    3.0    59      4   850.7    0.00 
 186    0:30   0.00   62.4    71    3.0    57      4   850.6    0.00 
 186    0:40   0.00   62.3    70    3.1    59      4   850.5    0.00 
 186    0:50   0.00   61.9    72    3.1    90      4   850.3    0.00 
 186    1:00   0.00   61.4    73    2.4    76      3   850.4    0.00 
 186    1:10   0.00   60.7    75    2.9    64      4   850.4    0.00 
 186    1:20   0.00   60.1    76    2.9    52      4   850.5    0.00 

Return to NNSC graphs page.


Western Regional Climate Center,wrcc@dri.edu